Time;durP1;ratioP1;P1;durP2;ratioP2;P2;SDS_P1;SDS_P2;PMS_P1;PMS_P2;Temp;Humidity;BMP_temperature;BMP_pressure;BME280_temperature;BME280_humidity;BME280_pressure;Samples;Min_cycle;Max_cycle;Signal;HPM_P1;HPM_P2
2021/12/21 00:00:38;;;;;;;14.25;7.97;;;-3275.90;87.80;;;;;;5108691;28;20027;-43
2021/12/21 00:03:05;;;;;;;15.82;8.93;;;-3275.80;87.70;;;;;;5095045;28;20038;-49
2021/12/21 00:05:32;;;;;;;17.90;7.07;;;-3275.80;87.80;;;;;;5101879;28;20036;-43
2021/12/21 00:08:01;;;;;;;17.77;7.45;;;-3275.80;87.90;;;;;;5112341;28;20023;-44
2021/12/21 00:10:32;;;;;;;16.55;7.65;;;-3275.80;88.00;;;;;;5110341;28;20107;-44
2021/12/21 00:13:10;;;;;;;16.02;7.65;;;-3275.80;88.10;;;;;;5107109;28;20035;-45
2021/12/21 00:21:13;;;;;;;13.38;7.55;;;-3275.80;88.00;;;;;;5093423;28;20438;-47
2021/12/21 00:23:46;;;;;;;16.67;7.35;;;-3275.80;88.00;;;;;;5103218;28;20020;-48
2021/12/21 00:26:20;;;;;;;15.63;7.72;;;-3275.70;87.90;;;;;;5114164;27;20020;-45
2021/12/21 00:28:59;;;;;;;12.68;6.88;;;-3275.70;87.90;;;;;;5101112;28;20043;-44
2021/12/21 00:31:31;;;;;;;14.13;5.88;;;-3275.70;87.90;;;;;;5093461;28;20364;-42
2021/12/21 00:33:59;;;;;;;13.20;6.45;;;-3275.60;87.90;;;;;;5092890;28;20415;-47
2021/12/21 00:36:29;;;;;;;13.43;7.03;;;-3275.60;87.90;;;;;;5093258;28;20460;-45
2021/12/21 00:38:57;;;;;;;;;;;-3275.60;88.00;;;;;;5093079;28;20050;-46
2021/12/21 00:41:25;;;;;;;12.48;6.28;;;-3275.60;87.90;;;;;;5108679;27;19916;-44
2021/12/21 00:43:50;;;;;;;9.05;5.43;;;-3275.60;87.90;;;;;;5111954;28;20041;-46
2021/12/21 00:46:17;;;;;;;20.35;6.80;;;-3275.60;87.80;;;;;;5113474;28;20032;-43
2021/12/21 00:48:50;;;;;;;11.50;6.50;;;-3275.60;87.80;;;;;;5111748;28;20031;-44
2021/12/21 00:51:22;;;;;;;7.97;5.18;;;-3275.50;87.70;;;;;;5113358;28;20088;-46
2021/12/21 00:53:49;;;;;;;9.75;7.38;;;-3275.60;87.70;;;;;;5105600;28;20058;-44
2021/12/21 00:56:16;;;;;;;9.30;5.88;;;-3275.50;87.60;;;;;;5112632;28;20024;-42
2021/12/21 00:58:46;;;;;;;12.82;6.47;;;-3275.50;87.70;;;;;;5097857;28;20043;-44
2021/12/21 01:01:13;;;;;;;12.93;5.90;;;-3275.50;87.60;;;;;;5113542;28;20364;-43
2021/12/21 01:03:46;;;;;;;11.80;6.80;;;-3275.40;87.50;;;;;;5097010;28;20616;-43
2021/12/21 01:09:11;;;;;;;11.27;7.03;;;-3275.50;87.50;;;;;;5107624;28;20040;-43
2021/12/21 01:11:36;;;;;;;13.68;8.07;;;-3275.40;87.50;;;;;;5094663;28;20093;-47
2021/12/21 01:17:14;;;;;;;13.32;9.18;;;-3275.40;87.60;;;;;;5105016;28;20077;-48
2021/12/21 01:19:58;;;;;;;22.75;9.98;;;-3275.50;87.60;;;;;;5104569;28;20123;-43
2021/12/21 01:22:48;;;;;;;17.30;9.90;;;-3275.40;87.40;;;;;;5096256;28;20075;-49
2021/12/21 01:25:25;;;;;;;20.75;10.48;;;-3275.40;87.60;;;;;;5113074;28;20119;-46
2021/12/21 01:28:11;;;;;;;16.83;7.45;;;-3275.40;87.50;;;;;;5096080;28;20032;-45
2021/12/21 01:35:57;;;;;;;13.90;6.75;;;-3275.40;87.60;;;;;;5109206;28;20066;-48
2021/12/21 01:39:04;;;;;;;13.77;7.25;;;-3275.30;87.40;;;;;;5093122;28;20664;-43
2021/12/21 01:44:00;;;;;;;11.82;6.53;;;-3275.30;87.50;;;;;;5122849;27;20539;-43
2021/12/21 01:51:59;;;;;;;11.75;7.65;;;-3275.20;87.40;;;;;;5096796;28;20082;-42
2021/12/21 01:54:26;;;;;;;14.05;5.85;;;-3275.30;87.70;;;;;;5113773;28;20035;-44
2021/12/21 01:56:54;;;;;;;8.75;5.82;;;-3275.30;87.50;;;;;;5117122;28;20028;-45
2021/12/21 01:59:21;;;;;;;10.55;5.22;;;-3275.30;87.40;;;;;;5108360;28;20068;-47
2021/12/21 02:01:48;;;;;;;10.45;5.80;;;-3275.30;87.60;;;;;;5097105;28;20036;-43
2021/12/21 02:04:17;;;;;;;11.10;6.18;;;-3275.30;87.70;;;;;;5107301;28;20062;-43
2021/12/21 02:06:44;;;;;;;12.55;6.10;;;-3275.30;87.60;;;;;;5116941;28;20328;-45
2021/12/21 02:09:12;;;;;;;10.65;5.38;;;-3275.20;87.40;;;;;;5101496;28;20111;-45
2021/12/21 02:11:38;;;;;;;10.50;6.35;;;-3275.30;87.50;;;;;;5109803;28;20039;-45
2021/12/21 02:14:09;;;;;;;9.02;5.30;;;-3275.20;87.50;;;;;;5116181;28;20517;-45
2021/12/21 02:16:53;;;;;;;9.05;5.35;;;-3275.30;87.60;;;;;;5103899;28;20055;-47
2021/12/21 02:21:52;;;;;;;8.48;5.00;;;-3275.30;87.60;;;;;;5109351;28;20122;-47
2021/12/21 02:24:29;;;;;;;10.20;5.90;;;-3275.20;87.40;;;;;;5096497;28;20032;-44
2021/12/21 02:27:17;;;;;;;7.88;5.57;;;-3275.20;87.30;;;;;;5096795;28;20070;-43
2021/12/21 02:29:48;;;;;;;10.13;5.53;;;-3275.20;87.30;;;;;;5095254;28;20026;-46
2021/12/21 02:32:16;;;;;;;8.63;5.47;;;-3275.20;87.30;;;;;;5111926;28;20031;-44
2021/12/21 02:34:44;;;;;;;8.07;5.60;;;-3275.10;87.30;;;;;;5113978;28;20512;-47
2021/12/21 02:37:12;;;;;;;8.53;5.87;;;-3275.20;87.40;;;;;;5114436;28;20360;-46
2021/12/21 02:39:38;;;;;;;8.40;5.65;;;-3275.10;87.60;;;;;;5103447;28;20292;-43
2021/12/21 02:42:06;;;;;;;8.07;5.50;;;-3275.20;87.70;;;;;;5116638;27;20138;-44
2021/12/21 02:44:33;;;;;;;8.00;6.18;;;-3275.10;87.60;;;;;;5079044;28;20051;-45
2021/12/21 02:47:00;;;;;;;8.95;5.88;;;-3275.10;87.80;;;;;;5097433;28;20020;-42
2021/12/21 02:49:27;;;;;;;6.72;5.00;;;-3275.10;88.00;;;;;;5101357;28;20114;-43
2021/12/21 02:51:54;;;;;;;9.20;6.10;;;-3275.10;87.70;;;;;;5104296;28;20032;-43
2021/12/21 02:54:24;;;;;;;10.63;6.97;;;-3275.10;87.80;;;;;;5095585;28;20036;-45
2021/12/21 02:56:51;;;;;;;;;;;-3275.10;87.80;;;;;;5105578;28;20065;-46
2021/12/21 02:59:17;;;;;;;10.52;7.13;;;-3275.10;87.70;;;;;;5098924;28;19969;-47
2021/12/21 03:01:44;;;;;;;9.65;7.57;;;-3275.10;87.90;;;;;;5115165;28;20031;-44
2021/12/21 03:04:10;;;;;;;10.40;6.93;;;-3275.10;88.00;;;;;;5095110;28;20028;-48
2021/12/21 03:09:58;;;;;;;8.80;6.43;;;-3275.10;87.70;;;;;;5105891;28;20031;-49
2021/12/21 03:12:10;;;;;;;9.75;7.13;;;-3275.10;87.70;;;;;;5087229;28;20043;-44
2021/12/21 03:14:37;;;;;;;10.10;7.35;;;-3275.20;87.70;;;;;;5114132;28;20039;-43
2021/12/21 03:17:05;;;;;;;10.25;7.18;;;-3275.10;87.80;;;;;;5114247;28;20059;-45
2021/12/21 03:19:32;;;;;;;9.10;6.60;;;-3275.20;87.80;;;;;;5106156;28;20019;-48
2021/12/21 03:21:59;;;;;;;7.82;6.47;;;-3275.20;87.60;;;;;;5115122;28;20043;-43
2021/12/21 03:24:24;;;;;;;9.15;6.45;;;-3275.20;87.60;;;;;;5093710;28;20384;-50
2021/12/21 03:26:50;;;;;;;8.88;6.85;;;-3275.20;87.80;;;;;;5094591;28;20170;-43
2021/12/21 03:29:17;;;;;;;11.27;7.68;;;-3275.20;87.80;;;;;;5089536;28;20059;-48
2021/12/21 03:31:44;;;;;;;9.27;6.80;;;-3275.20;87.80;;;;;;5094502;28;20032;-45
2021/12/21 03:34:11;;;;;;;11.07;7.55;;;-3275.20;87.90;;;;;;5109730;28;20380;-46
2021/12/21 03:36:38;;;;;;;8.77;6.35;;;-3275.20;88.20;;;;;;5115047;28;20055;-43
2021/12/21 03:39:08;;;;;;;9.40;7.50;;;-3275.30;88.20;;;;;;5106473;28;20028;-50
2021/12/21 03:41:38;;;;;;;;;;;-3275.30;88.10;;;;;;5111334;27;20069;-44
2021/12/21 03:44:09;;;;;;;10.13;7.60;;;-3275.30;88.20;;;;;;5114336;28;19908;-43
2021/12/21 03:46:44;;;;;;;9.20;6.75;;;-3275.30;88.20;;;;;;5101191;28;20109;-45
2021/12/21 03:49:50;;;;;;;9.95;7.18;;;-3275.20;87.90;;;;;;5094492;28;20028;-43
2021/12/21 03:52:04;;;;;;;12.60;7.32;;;-3275.20;87.90;;;;;;5109845;28;20092;-46
2021/12/21 03:54:31;;;;;;;11.43;8.10;;;-3275.10;87.90;;;;;;5113716;28;20043;-46
2021/12/21 03:57:02;;;;;;;10.20;7.90;;;-3275.10;88.20;;;;;;5113771;28;20343;-45
2021/12/21 03:59:29;;;;;;;14.60;8.10;;;-3275.10;88.20;;;;;;5112532;28;20030;-47
2021/12/21 04:02:00;;;;;;;13.23;8.20;;;-3275.10;88.20;;;;;;5100680;28;20044;-43
2021/12/21 04:04:30;;;;;;;16.73;8.82;;;-3275.10;88.20;;;;;;5093922;28;20039;-45
2021/12/21 04:06:57;;;;;;;16.75;9.30;;;-3275.10;88.20;;;;;;5108011;28;20525;-45
2021/12/21 04:09:24;;;;;;;15.60;10.30;;;-3275.10;88.30;;;;;;5110663;28;20051;-44
2021/12/21 04:11:51;;;;;;;12.43;8.00;;;-3275.00;88.40;;;;;;5094416;28;20039;-47
2021/12/21 04:14:18;;;;;;;12.43;8.43;;;-3275.00;88.60;;;;;;5095422;28;20036;-45
2021/12/21 04:16:44;;;;;;;11.57;8.60;;;-3275.10;88.80;;;;;;5093928;28;20028;-45
2021/12/21 04:19:13;;;;;;;12.32;8.30;;;-3275.10;88.70;;;;;;5102169;28;20135;-48
2021/12/21 04:21:43;;;;;;;14.80;8.93;;;-3275.10;88.60;;;;;;5093910;28;20040;-45
2021/12/21 04:24:10;;;;;;;14.80;7.60;;;-3275.10;88.60;;;;;;5094069;28;20456;-44
2021/12/21 04:26:39;;;;;;;11.00;7.97;;;-3275.00;88.60;;;;;;5092945;28;20020;-46
2021/12/21 04:29:06;;;;;;;12.80;7.97;;;-3275.00;88.50;;;;;;5108135;28;20032;-50
2021/12/21 04:31:33;;;;;;;10.80;7.97;;;-3275.00;88.50;;;;;;5113798;28;20035;-48
2021/12/21 04:34:01;;;;;;;14.75;8.10;;;-3275.00;88.30;;;;;;5100644;28;20361;-45
2021/12/21 04:36:27;;;;;;;12.68;9.15;;;-3275.00;88.10;;;;;;5093798;28;20063;-46
2021/12/21 04:38:55;;;;;;;13.05;8.48;;;-3275.00;88.30;;;;;;5098547;28;20349;-48
2021/12/21 04:41:23;;;;;;;12.18;8.50;;;-3275.00;88.10;;;;;;5110965;27;20541;-48
2021/12/21 04:43:52;;;;;;;10.82;8.20;;;-3274.90;87.90;;;;;;5113642;28;20059;-44
2021/12/21 04:46:19;;;;;;;12.35;8.75;;;-3275.00;88.10;;;;;;5104954;28;20028;-42
2021/12/21 04:48:46;;;;;;;11.95;7.60;;;-3274.90;88.20;;;;;;5109648;28;20035;-44
2021/12/21 04:51:12;;;;;;;13.30;8.23;;;-3274.90;88.30;;;;;;5106555;28;20110;-43
2021/12/21 04:53:42;;;;;;;12.75;8.85;;;-3275.00;88.40;;;;;;5104153;28;20040;-43
2021/12/21 04:56:09;;;;;;;13.55;9.30;;;-3275.00;88.40;;;;;;5108953;28;20024;-46
2021/12/21 04:58:36;;;;;;;13.18;9.55;;;-3275.00;88.40;;;;;;5102691;28;20077;-43
2021/12/21 05:01:06;;;;;;;15.45;9.63;;;-3275.00;88.30;;;;;;5102892;28;20032;-45
2021/12/21 05:03:36;;;;;;;14.88;10.13;;;-3274.90;88.10;;;;;;5108880;28;20375;-44
2021/12/21 05:06:03;;;;;;;12.75;9.27;;;-3274.90;88.20;;;;;;5113768;28;20016;-43
2021/12/21 05:08:34;;;;;;;16.88;9.15;;;-3274.90;88.30;;;;;;5103257;28;20038;-44
2021/12/21 05:11:04;;;;;;;13.45;9.45;;;-3274.90;88.20;;;;;;5096945;28;20032;-43
2021/12/21 05:13:34;;;;;;;14.90;8.93;;;-3274.90;88.20;;;;;;5098742;28;20052;-45
2021/12/21 05:16:00;;;;;;;13.75;9.70;;;-3274.90;88.10;;;;;;5097518;28;20099;-44
2021/12/21 05:18:32;;;;;;;10.95;8.07;;;-3274.80;88.00;;;;;;5101822;28;20124;-42
2021/12/21 05:20:59;;;;;;;11.68;8.85;;;-3274.80;88.20;;;;;;5116857;28;20433;-46
2021/12/21 05:23:30;;;;;;;12.27;8.68;;;-3274.80;88.20;;;;;;5105020;28;20060;-42
2021/12/21 05:25:57;;;;;;;13.38;8.85;;;-3274.80;88.20;;;;;;5096300;28;20028;-47
2021/12/21 05:28:24;;;;;;;11.10;9.15;;;-3274.90;88.20;;;;;;5098227;28;20060;-45
2021/12/21 05:30:51;;;;;;;14.25;8.77;;;-3274.80;88.10;;;;;;5108227;28;20487;-43
2021/12/21 05:33:17;;;;;;;12.30;8.55;;;-3274.90;88.10;;;;;;5109649;28;20036;-46
2021/12/21 05:35:44;;;;;;;12.43;8.57;;;-3274.90;87.80;;;;;;5096381;28;20344;-42
2021/12/21 05:38:13;;;;;;;13.90;9.85;;;-3274.80;87.60;;;;;;5096806;28;20391;-43
2021/12/21 05:40:42;;;;;;;19.58;11.63;;;-3274.80;87.60;;;;;;5103136;27;20039;-46
2021/12/21 05:43:09;;;;;;;17.02;12.05;;;-3274.80;87.80;;;;;;5115991;28;20031;-45
2021/12/21 05:45:35;;;;;;;17.98;10.98;;;-3274.70;87.70;;;;;;5102837;28;20028;-43
2021/12/21 05:48:02;;;;;;;22.90;11.43;;;-3274.70;87.90;;;;;;5096460;28;20312;-44
2021/12/21 05:50:27;;;;;;;20.58;12.27;;;-3274.80;87.90;;;;;;5096142;28;20415;-44
2021/12/21 05:52:53;;;;;;;19.75;12.25;;;-3274.80;88.10;;;;;;5100569;28;20096;-46
2021/12/21 05:55:22;;;;;;;26.83;13.70;;;-3274.80;88.10;;;;;;5116574;28;20036;-44
2021/12/21 05:57:49;;;;;;;24.15;14.43;;;-3274.80;88.00;;;;;;5112406;28;20360;-47
2021/12/21 06:00:19;;;;;;;22.10;13.23;;;-3274.80;88.30;;;;;;5100994;28;20029;-44
2021/12/21 06:02:46;;;;;;;22.50;15.90;;;-3274.80;88.50;;;;;;5113124;27;20449;-48
2021/12/21 06:05:13;;;;;;;28.38;16.05;;;-3274.70;88.00;;;;;;5095433;28;20053;-45
2021/12/21 06:07:40;;;;;;;19.73;12.32;;;-3274.70;88.00;;;;;;5098578;28;20028;-47
2021/12/21 06:10:14;;;;;;;19.73;13.02;;;-3274.70;88.00;;;;;;5107883;28;20034;-47
2021/12/21 06:13:08;;;;;;;21.98;13.48;;;-3274.60;88.00;;;;;;5113469;28;20023;-49
2021/12/21 06:15:40;;;;;;;26.63;16.55;;;-3274.70;88.30;;;;;;5095974;28;20412;-45
2021/12/21 06:26:08;;;;;;;53.35;21.40;;;-3274.80;88.60;;;;;;5094170;28;20020;-45
2021/12/21 06:28:35;;;;;;;32.00;19.42;;;-3274.80;88.60;;;;;;5106082;28;20030;-45
2021/12/21 06:31:03;;;;;;;34.47;18.48;;;-3274.80;88.60;;;;;;5104711;28;20480;-43
2021/12/21 06:33:30;;;;;;;35.88;17.48;;;-3274.80;88.70;;;;;;5102843;28;20107;-45
2021/12/21 06:35:56;;;;;;;27.58;15.68;;;-3274.70;88.80;;;;;;5116405;28;20019;-45
2021/12/21 06:38:22;;;;;;;41.28;15.10;;;-3274.80;89.00;;;;;;5111751;28;20680;-44
2021/12/21 06:40:48;;;;;;;28.52;14.68;;;-3274.80;89.10;;;;;;5110256;27;20122;-45
2021/12/21 06:43:16;;;;;;;21.25;12.63;;;-3274.80;89.00;;;;;;5114444;28;20031;-43
2021/12/21 06:46:02;;;;;;;22.83;13.85;;;-3274.80;89.20;;;;;;5109019;28;20032;-46
2021/12/21 06:54:07;;;;;;;32.50;12.35;;;-3274.70;89.30;;;;;;5111030;28;20092;-46
2021/12/21 06:56:33;;;;;;;23.83;13.60;;;-3274.70;89.40;;;;;;5116154;28;20020;-49
2021/12/21 06:59:00;;;;;;;18.27;11.50;;;-3274.60;89.30;;;;;;5101987;28;20054;-47
2021/12/21 07:01:28;;;;;;;25.15;10.80;;;-3274.60;89.60;;;;;;5096095;28;20114;-46
2021/12/21 07:03:56;;;;;;;17.60;10.70;;;-3274.60;89.70;;;;;;5107368;28;20036;-47
2021/12/21 07:06:23;;;;;;;17.88;10.23;;;-3274.70;89.60;;;;;;5115885;28;20043;-44
2021/12/21 07:09:16;;;;;;;17.58;11.15;;;-3274.70;89.60;;;;;;5105320;28;20406;-42
2021/12/21 07:11:45;;;;;;;17.77;10.52;;;-3274.70;89.50;;;;;;5098627;28;20032;-45
2021/12/21 07:19:44;;;;;;;16.25;10.80;;;-3274.70;89.40;;;;;;5099296;28;20094;-49
2021/12/21 07:22:12;;;;;;;14.88;10.18;;;-3274.60;89.50;;;;;;5102901;28;20027;-43
2021/12/21 07:24:42;;;;;;;12.43;9.63;;;-3274.60;89.50;;;;;;5095862;28;20044;-45
2021/12/21 07:27:09;;;;;;;13.18;9.90;;;-3274.60;89.60;;;;;;5098902;28;20027;-44
2021/12/21 07:29:36;;;;;;;15.57;9.88;;;-3274.70;89.50;;;;;;5094512;28;20028;-45
2021/12/21 07:32:03;;;;;;;15.13;11.60;;;-3274.60;89.40;;;;;;5101887;28;20035;-48
2021/12/21 07:34:30;;;;;;;19.35;13.10;;;-3274.60;89.60;;;;;;5096476;28;20058;-42
2021/12/21 07:37:00;;;;;;;21.50;11.82;;;-3274.60;89.50;;;;;;5097683;28;20034;-43
2021/12/21 07:39:27;;;;;;;18.23;11.23;;;-3274.60;89.60;;;;;;5104605;28;20024;-49
2021/12/21 07:41:54;;;;;;;13.85;8.63;;;-3274.60;89.70;;;;;;5099514;28;20043;-43
2021/12/21 07:44:20;;;;;;;15.45;10.18;;;-3274.70;89.70;;;;;;5107527;28;20043;-46
2021/12/21 07:46:46;;;;;;;15.38;10.98;;;-3274.70;89.70;;;;;;5097283;28;20040;-43
2021/12/21 07:49:14;;;;;;;22.30;11.63;;;-3274.70;89.60;;;;;;5095711;28;20039;-46
2021/12/21 07:51:43;;;;;;;14.32;10.45;;;-3274.70;89.70;;;;;;5097102;28;20118;-44
2021/12/21 07:54:10;;;;;;;;;;;-3274.70;89.50;;;;;;5114116;28;20365;-44
2021/12/21 07:56:37;;;;;;;11.63;9.07;;;-3274.70;89.30;;;;;;5110910;28;20439;-42
2021/12/21 07:59:04;;;;;;;11.35;8.48;;;-3274.70;89.30;;;;;;5096106;28;20468;-47
2021/12/21 08:01:31;;;;;;;12.52;8.75;;;-3274.70;89.40;;;;;;5107003;28;20039;-43
2021/12/21 08:03:59;;;;;;;15.38;9.07;;;-3274.70;89.50;;;;;;5112966;28;20031;-48
2021/12/21 08:06:31;;;;;;;24.05;9.73;;;-3274.70;89.60;;;;;;5114516;28;20549;-43
2021/12/21 08:09:02;;;;;;;20.75;9.40;;;-3274.70;89.70;;;;;;5106926;28;20084;-44
2021/12/21 08:13:57;;;;;;;13.90;8.65;;;-3274.80;90.10;;;;;;5100589;28;20028;-45
2021/12/21 08:16:23;;;;;;;14.95;9.45;;;-3274.90;90.20;;;;;;5102260;28;20376;-43
2021/12/21 08:18:50;;;;;;;17.20;9.05;;;-3274.90;90.10;;;;;;5109678;28;20127;-42
2021/12/21 08:21:18;;;;;;;14.95;9.05;;;-3274.90;90.10;;;;;;5101604;28;20050;-44
2021/12/21 08:23:51;;;;;;;12.63;9.60;;;-3275.00;90.10;;;;;;5100983;28;20356;-44
2021/12/21 08:26:18;;;;;;;13.45;9.43;;;-3275.00;90.00;;;;;;5101344;28;20019;-48
2021/12/21 08:28:45;;;;;;;15.35;10.43;;;-3275.10;90.00;;;;;;5106649;28;20548;-44
2021/12/21 08:31:12;;;;;;;18.35;11.13;;;-3275.10;89.80;;;;;;5093427;28;20067;-45
2021/12/21 08:33:41;;;;;;;16.23;11.55;;;-3275.20;89.80;;;;;;5104517;28;20527;-46
2021/12/21 08:36:09;;;;;;;15.15;11.02;;;-3275.20;89.70;;;;;;5113288;28;20126;-45
2021/12/21 08:38:41;;;;;;;14.65;10.60;;;-3275.10;89.50;;;;;;5106007;28;20020;-48
2021/12/21 08:41:11;;;;;;;15.15;11.02;;;-3275.10;89.30;;;;;;5112379;27;20063;-44
2021/12/21 08:43:38;;;;;;;17.35;12.82;;;-3275.10;89.50;;;;;;5101874;28;20538;-45
2021/12/21 08:46:08;;;;;;;15.73;13.07;;;-3275.10;89.50;;;;;;5098950;28;20031;-45
2021/12/21 08:48:35;;;;;;;;;;;-3275.20;89.50;;;;;;5099193;28;20050;-45
2021/12/21 08:51:04;;;;;;;13.18;9.52;;;-3275.20;89.40;;;;;;5094842;28;19922;-43
2021/12/21 08:53:42;;;;;;;13.93;10.15;;;-3275.20;89.30;;;;;;5113529;28;20066;-44
2021/12/21 08:56:09;;;;;;;14.68;9.88;;;-3275.30;89.30;;;;;;5104753;28;20144;-43
2021/12/21 08:58:39;;;;;;;13.80;11.00;;;-3275.40;89.30;;;;;;5103116;28;20036;-43
2021/12/21 09:01:05;;;;;;;16.95;11.18;;;-3275.50;89.30;;;;;;5111901;28;20172;-44
2021/12/21 09:03:33;;;;;;;15.15;10.95;;;-3275.60;89.10;;;;;;5110184;28;20035;-49
2021/12/21 09:06:00;;;;;;;16.67;11.68;;;-3275.60;89.00;;;;;;5093312;28;20699;-43
2021/12/21 09:08:27;;;;;;;16.67;11.55;;;-3275.80;88.90;;;;;;5101211;28;20045;-45
2021/12/21 09:10:54;;;;;;;19.27;12.02;;;-3275.90;88.60;;;;;;5111790;28;20440;-47
2021/12/21 09:13:21;;;;;;;18.52;13.90;;;-3275.90;88.50;;;;;;5111836;28;20039;-46
2021/12/21 09:15:46;;;;;;;20.90;13.10;;;-3276.10;88.40;;;;;;5097061;28;20036;-47
2021/12/21 09:18:12;;;;;;;20.63;12.95;;;-3276.10;88.00;;;;;;5103078;28;20024;-45
2021/12/21 09:20:39;;;;;;;17.70;13.05;;;-3276.10;87.70;;;;;;5094776;28;20353;-47
2021/12/21 09:23:06;;;;;;;17.73;13.52;;;-3276.10;87.60;;;;;;5100300;28;20035;-43
2021/12/21 09:25:32;;;;;;;18.75;13.50;;;-3276.20;87.80;;;;;;5091996;28;20028;-42
2021/12/21 09:27:59;;;;;;;19.42;12.20;;;-3276.20;87.60;;;;;;5101380;28;20080;-44
2021/12/21 09:30:30;;;;;;;17.70;12.70;;;-3276.30;87.60;;;;;;5112388;28;20024;-44
2021/12/21 09:32:58;;;;;;;16.88;12.20;;;-3276.20;87.60;;;;;;5107688;28;20032;-43
2021/12/21 09:35:26;;;;;;;14.23;11.02;;;-3276.20;87.70;;;;;;5112412;28;20540;-42
2021/12/21 09:37:54;;;;;;;15.90;11.48;;;-3276.30;87.90;;;;;;5106950;28;20024;-42
2021/12/21 09:40:22;;;;;;;15.90;12.20;;;-3276.40;87.70;;;;;;5102705;28;20067;-42
2021/12/21 09:42:50;;;;;;;16.38;11.80;;;-3276.40;87.80;;;;;;5108791;28;20060;-43
2021/12/21 09:45:18;;;;;;;19.85;12.40;;;-3276.50;87.80;;;;;;5104649;28;20028;-41
2021/12/21 09:47:45;;;;;;;21.85;12.90;;;-3276.50;87.80;;;;;;5092862;28;20039;-41
2021/12/21 09:50:13;;;;;;;16.45;13.23;;;-3276.60;87.80;;;;;;5092630;28;20032;-44
2021/12/21 09:52:40;;;;;;;20.17;13.68;;;-3276.70;88.00;;;;;;5113056;28;20031;-41
2021/12/21 09:55:10;;;;;;;17.00;13.27;;;0.00;87.80;;;;;;5113170;28;20050;-44
2021/12/21 09:57:37;;;;;;;20.10;14.77;;;0.00;87.80;;;;;;5092025;28;20028;-42
2021/12/21 10:00:11;;;;;;;16.58;13.05;;;0.10;87.80;;;;;;5093003;28;20028;-46
2021/12/21 10:02:40;;;;;;;17.35;13.18;;;0.10;87.50;;;;;;5097284;28;20032;-42
2021/12/21 10:05:11;;;;;;;21.60;14.07;;;0.10;87.60;;;;;;5095412;28;20101;-43
2021/12/21 10:07:38;;;;;;;15.68;12.25;;;0.20;87.50;;;;;;5096948;28;20044;-47
2021/12/21 10:10:15;;;;;;;15.43;12.43;;;0.20;87.60;;;;;;5105938;28;20057;-41
2021/12/21 10:12:46;;;;;;;20.67;15.55;;;0.20;87.70;;;;;;5113615;28;20066;-42
2021/12/21 10:15:17;;;;;;;18.65;13.07;;;0.20;87.50;;;;;;5099699;28;20096;-42
2021/12/21 10:18:01;;;;;;;18.10;13.02;;;0.20;87.60;;;;;;5115471;28;20119;-47
2021/12/21 10:20:43;;;;;;;19.20;14.52;;;0.30;87.90;;;;;;5102562;28;20364;-45
2021/12/21 10:23:31;;;;;;;16.15;12.75;;;0.30;88.00;;;;;;5109438;28;20032;-43
2021/12/21 10:26:10;;;;;;;22.27;15.95;;;0.30;88.00;;;;;;5103242;28;20032;-43
2021/12/21 10:28:41;;;;;;;23.50;15.43;;;0.40;88.00;;;;;;5107172;28;20326;-45
2021/12/21 10:31:10;;;;;;;21.52;14.75;;;0.40;88.10;;;;;;5115212;28;20039;-44
2021/12/21 10:33:40;;;;;;;21.98;14.93;;;0.40;88.20;;;;;;5099893;28;20412;-44
2021/12/21 10:36:08;;;;;;;19.20;14.48;;;0.40;88.20;;;;;;5095959;28;20177;-48
2021/12/21 10:38:59;;;;;;;18.23;13.50;;;0.50;88.00;;;;;;5103893;28;20101;-48
2021/12/21 10:41:44;;;;;;;18.58;14.60;;;0.50;88.30;;;;;;5104298;27;20055;-44
2021/12/21 10:44:29;;;;;;;19.38;14.32;;;0.50;88.30;;;;;;5097836;28;20134;-45
2021/12/21 10:46:56;;;;;;;18.38;13.50;;;0.50;88.30;;;;;;5095364;28;20047;-48
2021/12/21 10:49:29;;;;;;;18.92;13.40;;;0.60;88.40;;;;;;5095707;28;20028;-48
2021/12/21 10:52:05;;;;;;;17.77;13.70;;;0.60;88.50;;;;;;5108473;28;20055;-47
2021/12/21 10:54:39;;;;;;;19.05;14.27;;;0.60;88.40;;;;;;5098467;28;20051;-43
2021/12/21 10:57:12;;;;;;;18.35;12.85;;;0.70;88.50;;;;;;5095198;28;20020;-46
2021/12/21 10:59:42;;;;;;;16.00;13.27;;;0.60;88.50;;;;;;5099454;28;20031;-45
2021/12/21 11:02:13;;;;;;;21.05;14.32;;;0.70;88.70;;;;;;5095183;28;20471;-45
2021/12/21 11:04:42;;;;;;;19.63;13.68;;;0.70;88.70;;;;;;5114353;28;20027;-44
2021/12/21 11:07:19;;;;;;;;;;;0.70;88.40;;;;;;5113366;28;20028;-44
2021/12/21 11:10:12;;;;;;;20.60;14.77;;;0.70;88.60;;;;;;5103594;28;19919;-43
2021/12/21 11:12:58;;;;;;;16.45;12.60;;;0.70;88.90;;;;;;5098852;28;20069;-43
2021/12/21 11:15:32;;;;;;;18.70;13.70;;;0.80;89.10;;;;;;5096034;28;20032;-44
2021/12/21 11:18:19;;;;;;;22.10;13.68;;;0.70;88.90;;;;;;5100292;28;20031;-44
2021/12/21 11:20:48;;;;;;;18.85;14.32;;;0.70;89.10;;;;;;5096482;28;20032;-44
2021/12/21 11:23:18;;;;;;;23.08;15.40;;;0.80;89.10;;;;;;5106559;28;20119;-42
2021/12/21 11:25:48;;;;;;;;;;;0.90;89.20;;;;;;5109400;28;20067;-44
2021/12/21 11:28:20;;;;;;;20.95;14.32;;;0.90;89.20;;;;;;5114379;28;19918;-45
2021/12/21 11:30:52;;;;;;;19.98;15.00;;;0.90;89.20;;;;;;5115217;28;20035;-43
2021/12/21 11:33:20;;;;;;;17.02;13.35;;;1.00;89.10;;;;;;5110160;28;20580;-45
2021/12/21 11:38:37;;;;;;;17.85;14.00;;;1.00;89.00;;;;;;5100217;28;20071;-42
2021/12/21 11:41:04;;;;;;;18.15;14.13;;;1.00;88.90;;;;;;5111595;27;20054;-43
2021/12/21 11:44:04;;;;;;;18.13;12.93;;;1.00;89.00;;;;;;5101636;28;20437;-44
2021/12/21 11:46:51;;;;;;;18.75;14.20;;;1.10;89.10;;;;;;5061955;28;20437;-43
2021/12/21 11:49:25;;;;;;;23.15;14.95;;;1.10;89.00;;;;;;5113852;28;20028;-41
2021/12/21 11:51:52;;;;;;;23.20;14.35;;;1.20;88.90;;;;;;5106051;28;20107;-42
2021/12/21 11:54:22;;;;;;;18.05;13.20;;;1.20;88.90;;;;;;5095450;28;20369;-45
2021/12/21 11:56:48;;;;;;;;;;;1.20;88.90;;;;;;5101804;28;20448;-45
2021/12/21 11:59:22;;;;;;;22.98;14.05;;;1.20;88.90;;;;;;5098471;28;19990;-41
2021/12/21 12:01:49;;;;;;;19.35;15.23;;;1.20;89.00;;;;;;5093987;28;20055;-41
2021/12/21 12:04:16;;;;;;;20.20;14.88;;;1.20;89.00;;;;;;5110132;28;20356;-43
2021/12/21 12:06:54;;;;;;;21.73;14.63;;;1.30;89.00;;;;;;5101719;28;20039;-41
2021/12/21 12:09:36;;;;;;;21.27;15.52;;;1.30;89.00;;;;;;5099698;28;20026;-43
2021/12/21 12:12:15;;;;;;;22.35;15.18;;;1.30;89.10;;;;;;5098192;28;20056;-48
2021/12/21 12:14:45;;;;;;;19.55;15.00;;;1.30;89.10;;;;;;5094810;28;20024;-44
2021/12/21 12:17:13;;;;;;;18.30;13.70;;;1.40;89.20;;;;;;5094087;28;20039;-43
2021/12/21 12:19:44;;;;;;;22.85;15.55;;;1.40;89.20;;;;;;5102613;28;20066;-43
2021/12/21 12:22:15;;;;;;;20.17;14.93;;;1.40;89.20;;;;;;5094793;28;20063;-47
2021/12/21 12:24:57;;;;;;;22.38;17.08;;;1.40;89.10;;;;;;5092141;28;20084;-42
2021/12/21 12:27:27;;;;;;;20.48;14.07;;;1.50;89.30;;;;;;5105521;28;20038;-44
2021/12/21 12:30:07;;;;;;;25.73;15.85;;;1.50;89.20;;;;;;5093959;28;20012;-44
2021/12/21 12:32:40;;;;;;;20.92;15.43;;;1.50;89.20;;;;;;5106378;28;20036;-45
2021/12/21 12:35:20;;;;;;;23.45;15.25;;;1.50;89.20;;;;;;5111442;28;20034;-44
2021/12/21 12:37:54;;;;;;;23.27;14.98;;;1.50;89.10;;;;;;5114182;28;20066;-44
2021/12/21 12:40:40;;;;;;;25.92;16.52;;;1.60;89.20;;;;;;5102600;28;20039;-44
2021/12/21 12:43:10;;;;;;;21.02;16.48;;;1.60;89.30;;;;;;5105944;28;20352;-43
2021/12/21 12:46:01;;;;;;;22.17;15.48;;;1.60;89.20;;;;;;5093677;28;20407;-45
2021/12/21 12:48:42;;;;;;;23.25;15.63;;;1.60;89.30;;;;;;5108725;28;20051;-46
2021/12/21 12:51:22;;;;;;;21.13;14.55;;;1.60;89.30;;;;;;5092436;28;20133;-47
2021/12/21 12:53:49;;;;;;;21.60;15.98;;;1.60;89.10;;;;;;5101516;28;20031;-44
2021/12/21 12:56:19;;;;;;;24.80;16.65;;;1.70;89.20;;;;;;5093458;28;20028;-43
2021/12/21 12:58:59;;;;;;;;;;;1.70;89.20;;;;;;5095209;28;20016;-44
2021/12/21 13:01:31;;;;;;;23.00;16.80;;;1.80;89.10;;;;;;5092627;28;19915;-43
2021/12/21 13:04:01;;;;;;;26.55;15.63;;;1.70;89.10;;;;;;5092503;28;20092;-45
2021/12/21 13:06:33;;;;;;;29.23;16.10;;;1.80;89.10;;;;;;5111371;28;20024;-44
2021/12/21 13:09:04;;;;;;;23.05;16.23;;;1.80;89.10;;;;;;5104277;28;20337;-47
2021/12/21 13:11:33;;;;;;;29.10;18.40;;;1.80;89.20;;;;;;5095046;28;20165;-48
2021/12/21 13:14:03;;;;;;;26.80;18.23;;;1.80;89.20;;;;;;5096838;28;20046;-44
2021/12/21 13:16:31;;;;;;;22.42;17.63;;;1.80;89.10;;;;;;5094316;28;20165;-50
2021/12/21 13:19:11;;;;;;;25.92;17.23;;;1.80;89.10;;;;;;5111798;28;20020;-43
2021/12/21 13:21:57;;;;;;;22.55;16.75;;;1.70;89.00;;;;;;5112341;28;20475;-43
2021/12/21 13:24:33;;;;;;;26.13;18.80;;;1.80;89.10;;;;;;5096096;28;20346;-43
2021/12/21 13:27:03;;;;;;;29.75;19.52;;;1.70;89.10;;;;;;5093243;28;20020;-42